createdAt,value
2022-08-09T00:00:11.445Z,1.83
2022-08-09T00:02:49.497Z,1.90
2022-08-09T00:06:18.634Z,1.77
2022-08-09T00:08:11.111Z,1.92
2022-08-09T00:10:40.031Z,2.00
2022-08-09T00:13:16.760Z,1.90
2022-08-09T00:16:00.083Z,1.88
2022-08-09T00:18:34.861Z,1.60
2022-08-09T00:21:08.397Z,1.70
2022-08-09T00:23:54.875Z,2.13
2022-08-09T00:26:29.798Z,1.48
2022-08-09T00:29:00.938Z,1.60
2022-08-09T00:31:56.884Z,1.42
2022-08-09T00:34:14.386Z,1.58
2022-08-09T00:36:41.979Z,1.60
2022-08-09T00:39:16.986Z,1.70
2022-08-09T00:44:13.136Z,1.63
2022-08-09T00:44:43.345Z,1.65
2022-08-09T00:47:15.612Z,1.40
2022-08-09T00:49:52.425Z,1.70
2022-08-09T00:52:30.107Z,1.90
2022-08-09T00:55:01.611Z,1.60
2022-08-09T00:57:34.874Z,1.60
2022-08-09T01:00:21.196Z,1.30
2022-08-09T01:03:22.835Z,1.60
2022-08-09T01:06:17.406Z,1.80
2022-08-09T01:09:01.874Z,1.55
2022-08-09T01:11:41.204Z,1.38
2022-08-09T01:14:41.459Z,1.65
2022-08-09T01:17:25.353Z,1.50
2022-08-09T01:20:03.798Z,1.20
2022-08-09T01:22:55.041Z,1.50
2022-08-09T01:25:22.166Z,1.40
2022-08-09T01:27:52.445Z,1.50
2022-08-09T01:30:28.423Z,1.67
2022-08-09T01:33:06.044Z,1.40
2022-08-09T01:35:51.909Z,1.30
2022-08-09T01:38:23.340Z,1.75
2022-08-09T01:41:03.002Z,1.55
2022-08-09T01:46:25.083Z,1.60
2022-08-09T01:49:00.254Z,1.60
2022-08-09T01:51:44.231Z,1.60
2022-08-09T01:54:12.148Z,1.50
2022-08-09T01:56:40.866Z,1.60
2022-08-09T01:59:10.222Z,1.33
2022-08-09T02:01:59.208Z,1.45
2022-08-09T02:04:26.025Z,1.52
2022-08-09T02:07:18.397Z,1.60
2022-08-09T02:10:04.673Z,1.65
2022-08-09T02:12:32.994Z,1.70
2022-08-09T02:15:00.943Z,1.42
2022-08-09T02:18:01.469Z,1.40
2022-08-09T02:20:26.732Z,1.50
2022-08-09T02:23:18.755Z,1.40
2022-08-09T02:25:52.618Z,1.40
2022-08-09T02:28:32.775Z,1.45
2022-08-09T02:31:05.904Z,1.40
2022-08-09T02:34:07.372Z,1.42
2022-08-09T02:36:29.919Z,1.40
2022-08-09T02:39:02.367Z,1.33
2022-08-09T02:41:37.005Z,1.50
2022-08-09T02:44:13.702Z,1.40
2022-08-09T02:46:55.384Z,1.30
2022-08-09T02:49:38.419Z,1.50
2022-08-09T02:52:10.107Z,1.50
2022-08-09T02:54:54.599Z,1.77
2022-08-09T02:57:25.261Z,1.40
2022-08-09T03:00:20.911Z,2.10
2022-08-09T03:02:58.504Z,1.40
2022-08-09T03:05:28.419Z,1.40
2022-08-09T03:07:55.661Z,1.30
2022-08-09T03:10:23.022Z,1.60
2022-08-09T03:12:52.070Z,1.55
2022-08-09T03:15:20.709Z,1.50
2022-08-09T03:17:57.800Z,1.38
2022-08-09T03:20:29.447Z,1.30
2022-08-09T03:22:58.297Z,1.60
2022-08-09T03:25:57.029Z,1.70
2022-08-09T03:28:16.035Z,1.52
2022-08-09T03:30:43.962Z,1.40
2022-08-09T03:33:19.070Z,1.27
2022-08-09T03:36:12.974Z,1.30
2022-08-09T03:38:42.123Z,1.30
2022-08-09T03:41:15.289Z,1.70
2022-08-09T03:44:03.646Z,1.60
2022-08-09T03:46:33.955Z,1.50
2022-08-09T03:49:04.104Z,1.52
2022-08-09T03:51:55.062Z,1.60
2022-08-09T03:54:29.251Z,1.73
2022-08-09T03:56:58.761Z,1.52
2022-08-09T03:59:27.408Z,1.58
2022-08-09T04:02:09.365Z,1.83
2022-08-09T04:04:38.950Z,1.48
2022-08-09T04:07:06.457Z,1.30
2022-08-09T04:09:47.971Z,1.90
2022-08-09T04:12:30.987Z,1.58
2022-08-09T04:15:01.853Z,1.60
2022-08-09T04:17:30.385Z,1.83
2022-08-09T04:19:58.826Z,1.70
2022-08-09T04:22:29.521Z,1.60
2022-08-09T04:24:58.907Z,1.80
2022-08-09T04:27:26.304Z,1.48
2022-08-09T04:29:56.442Z,1.70
2022-08-09T04:32:23.897Z,1.73
2022-08-09T04:35:01.464Z,1.77
2022-08-09T04:37:45.203Z,1.40
2022-08-09T04:40:28.665Z,1.70
2022-08-09T04:42:59.813Z,1.55
2022-08-09T04:45:28.392Z,1.55
2022-08-09T04:48:02.105Z,1.50
2022-08-09T04:50:31.863Z,1.80
2022-08-09T04:53:02.045Z,1.90
2022-08-09T04:55:38.934Z,1.75
2022-08-09T04:58:15.510Z,1.48
2022-08-09T05:00:43.140Z,1.48
2022-08-09T05:03:30.294Z,1.50
2022-08-09T05:06:06.503Z,1.65
2022-08-09T05:08:34.732Z,1.27
2022-08-09T05:11:02.340Z,1.50
2022-08-09T05:13:33.258Z,1.40
2022-08-09T05:16:01.052Z,1.73
2022-08-09T05:18:38.948Z,1.50
2022-08-09T05:21:23.298Z,1.77
2022-08-09T05:24:00.334Z,1.55
2022-08-09T05:26:36.592Z,1.50
2022-08-09T05:29:04.797Z,1.85
2022-08-09T05:31:46.456Z,1.50
2022-08-09T05:34:16.400Z,1.52
2022-08-09T05:36:44.001Z,1.60
2022-08-09T05:39:28.972Z,1.60
2022-08-09T05:42:01.594Z,1.60
2022-08-09T05:44:32.852Z,1.60
2022-08-09T05:47:01.447Z,1.70
2022-08-09T05:50:31.137Z,1.80
2022-08-09T05:52:21.108Z,1.77
2022-08-09T05:54:51.635Z,1.63
2022-08-09T05:57:19.288Z,1.75
2022-08-09T05:59:46.587Z,1.58
2022-08-09T06:02:16.858Z,1.75
2022-08-09T06:07:21.466Z,1.63
2022-08-09T06:10:01.385Z,1.60
2022-08-09T06:12:29.634Z,1.60
2022-08-09T06:15:00.693Z,1.75
2022-08-09T06:17:39.100Z,1.48
2022-08-09T06:20:07.126Z,1.40
2022-08-09T06:22:34.878Z,1.73
2022-08-09T06:25:01.969Z,1.50
2022-08-09T06:27:42.879Z,1.70
2022-08-09T06:30:16.925Z,1.50
2022-08-09T06:33:00.136Z,1.77
2022-08-09T06:35:35.726Z,1.55
2022-08-09T06:38:19.516Z,1.33
2022-08-09T06:40:46.178Z,1.75
2022-08-09T06:43:14.075Z,1.65
2022-08-09T06:46:07.039Z,1.70
2022-08-09T06:48:30.927Z,1.50
2022-08-09T06:53:26.088Z,1.50
2022-08-09T06:55:53.369Z,1.50
2022-08-09T06:58:40.806Z,1.55
2022-08-09T07:01:08.006Z,1.60
2022-08-09T07:03:39.343Z,1.98
2022-08-09T07:06:18.377Z,1.65
2022-08-09T07:08:46.708Z,1.77
2022-08-09T07:11:17.645Z,1.73
2022-08-09T07:14:05.291Z,1.50
2022-08-09T07:16:39.929Z,1.70
2022-08-09T07:19:15.008Z,1.77
2022-08-09T07:21:55.789Z,2.00
2022-08-09T07:24:32.467Z,1.67
2022-08-09T07:27:11.011Z,1.58
2022-08-09T07:29:58.318Z,1.50
2022-08-09T07:32:33.488Z,1.90
2022-08-09T07:35:10.225Z,1.80
2022-08-09T07:37:44.693Z,1.40
2022-08-09T07:40:17.577Z,1.80
2022-08-09T07:42:54.454Z,1.33
2022-08-09T07:45:37.795Z,1.80
2022-08-09T07:48:05.607Z,1.50
2022-08-09T07:50:36.699Z,1.90
2022-08-09T07:53:05.111Z,1.52
2022-08-09T07:55:41.301Z,1.60
2022-08-09T07:58:21.546Z,1.70
2022-08-09T08:00:58.825Z,1.75
2022-08-09T08:03:37.035Z,1.40
2022-08-09T08:09:00.003Z,1.70
2022-08-09T08:12:11.194Z,1.80
2022-08-09T08:14:06.244Z,1.83
2022-08-09T08:16:34.550Z,1.70
2022-08-09T08:19:02.934Z,1.63
2022-08-09T08:21:31.137Z,1.63
2022-08-09T08:24:01.362Z,1.60
2022-08-09T08:26:54.486Z,1.60
2022-08-09T08:29:27.372Z,1.70
2022-08-09T08:32:04.431Z,1.40
2022-08-09T08:34:34.567Z,1.40
2022-08-09T08:37:02.133Z,1.33
2022-08-09T08:39:28.917Z,1.67
2022-08-09T08:42:00.834Z,1.55
2022-08-09T08:44:29.760Z,1.60
2022-08-09T08:47:02.276Z,1.60
2022-08-09T08:49:46.326Z,1.45
2022-08-09T08:52:52.978Z,1.50
2022-08-09T08:55:05.668Z,1.33
2022-08-09T08:57:34.909Z,1.30
2022-08-09T09:00:03.552Z,1.67
2022-08-09T09:02:40.533Z,1.58
2022-08-09T09:05:11.953Z,1.90
2022-08-09T09:07:42.348Z,1.90
2022-08-09T09:10:10.237Z,1.80
2022-08-09T09:12:37.293Z,1.70
2022-08-09T09:15:06.226Z,1.50
2022-08-09T09:17:49.169Z,1.60
2022-08-09T09:20:21.342Z,1.38
2022-08-09T09:23:01.613Z,2.03
2022-08-09T09:26:02.346Z,1.40
2022-08-09T09:29:02.035Z,1.80
2022-08-09T09:32:06.528Z,1.58
2022-08-09T09:34:14.486Z,1.77
2022-08-09T09:36:51.157Z,1.60
2022-08-09T09:39:25.583Z,1.60
2022-08-09T09:42:23.210Z,1.50
2022-08-09T09:45:03.125Z,1.67
2022-08-09T09:47:30.482Z,1.60
2022-08-09T09:50:15.169Z,1.60
2022-08-09T09:52:52.485Z,1.67
2022-08-09T09:55:32.321Z,1.80
2022-08-09T09:58:16.951Z,1.58
2022-08-09T10:00:58.692Z,1.58
2022-08-09T10:03:56.403Z,1.60
2022-08-09T10:06:42.710Z,1.40
2022-08-09T10:09:22.162Z,1.65
2022-08-09T10:12:12.081Z,1.27
2022-08-09T10:14:48.228Z,1.40
2022-08-09T10:17:50.966Z,1.70
2022-08-09T10:20:27.097Z,1.43
2022-08-09T10:23:13.669Z,1.42
2022-08-09T10:26:06.955Z,1.55
2022-08-09T10:28:33.912Z,1.42
2022-08-09T10:34:10.634Z,1.83
2022-08-09T10:36:35.889Z,1.33
2022-08-09T10:39:13.822Z,1.73
2022-08-09T10:44:10.164Z,1.50
2022-08-09T10:48:12.500Z,1.63
2022-08-09T10:50:15.154Z,1.60
2022-08-09T10:53:10.278Z,1.50
2022-08-09T10:55:55.234Z,1.80
2022-08-09T10:58:33.707Z,1.27
2022-08-09T11:03:01.794Z,1.50
2022-08-09T11:04:19.845Z,1.27
2022-08-09T11:06:57.819Z,1.52
2022-08-09T11:09:45.277Z,1.47
2022-08-09T11:12:29.883Z,1.40
2022-08-09T11:14:58.115Z,1.45
2022-08-09T11:17:26.413Z,1.30
2022-08-09T11:20:22.018Z,1.30
2022-08-09T11:22:56.585Z,1.60
2022-08-09T11:25:45.031Z,1.40
2022-08-09T11:28:35.180Z,1.57
2022-08-09T11:31:49.865Z,1.33
2022-08-09T11:34:24.798Z,1.40
2022-08-09T11:36:52.039Z,1.40
2022-08-09T11:39:18.779Z,1.58
2022-08-09T11:41:46.912Z,1.33
2022-08-09T11:44:16.241Z,1.52
2022-08-09T11:46:54.227Z,1.10
2022-08-09T11:50:56.023Z,1.35
2022-08-09T11:53:44.058Z,1.40
2022-08-09T11:55:52.751Z,1.52
2022-08-09T11:58:32.350Z,1.70
2022-08-09T12:01:08.810Z,1.30
2022-08-09T12:03:55.679Z,1.40
2022-08-09T12:06:32.506Z,1.67
2022-08-09T12:09:19.066Z,1.63
2022-08-09T12:12:04.012Z,1.30
2022-08-09T12:14:36.788Z,1.55
2022-08-09T12:17:34.733Z,1.30
2022-08-09T12:20:02.495Z,1.45
2022-08-09T12:22:32.164Z,1.20
2022-08-09T12:25:16.830Z,1.45
2022-08-09T12:28:59.582Z,1.40
2022-08-09T12:30:38.173Z,1.40
2022-08-09T12:33:07.309Z,1.20
2022-08-09T12:35:40.131Z,1.30
2022-08-09T12:38:37.618Z,1.20
2022-08-09T12:41:07.214Z,1.30
2022-08-09T12:44:05.674Z,1.40
2022-08-09T12:46:23.896Z,1.23
2022-08-09T12:48:54.615Z,1.10
2022-08-09T12:51:52.587Z,1.15
2022-08-09T12:54:09.901Z,1.30
2022-08-09T12:56:51.444Z,1.30
2022-08-09T12:59:24.326Z,1.27
2022-08-09T13:02:09.654Z,1.30
2022-08-09T13:07:14.010Z,1.10
2022-08-09T13:09:52.902Z,1.40
2022-08-09T13:12:28.211Z,1.10
2022-08-09T13:15:07.371Z,1.30
2022-08-09T13:18:03.458Z,1.33
2022-08-09T13:22:33.156Z,1.17
2022-08-09T13:24:17.303Z,1.23
2022-08-09T13:26:49.850Z,1.33
2022-08-09T13:29:19.396Z,1.30
2022-08-09T13:32:15.991Z,1.30
2022-08-09T13:34:46.512Z,1.60
2022-08-09T13:37:15.057Z,1.17
2022-08-09T13:41:51.233Z,1.27
2022-08-09T13:42:49.922Z,1.20
2022-08-09T13:45:17.148Z,1.20
2022-08-09T13:47:51.861Z,1.40
2022-08-09T13:50:30.259Z,1.20
2022-08-09T13:52:58.410Z,0.95
2022-08-09T13:55:28.741Z,1.20
2022-08-09T13:57:59.377Z,1.25
2022-08-09T14:00:28.961Z,1.33
2022-08-09T14:03:03.544Z,1.30
2022-08-09T14:06:01.356Z,1.20
2022-08-09T14:08:30.524Z,1.10
2022-08-09T14:11:00.184Z,1.20
2022-08-09T14:14:15.919Z,1.20
2022-08-09T14:16:17.192Z,1.20
2022-08-09T14:18:49.351Z,0.90
2022-08-09T14:21:24.058Z,1.05
2022-08-09T14:23:53.942Z,1.20
2022-08-09T14:26:31.696Z,1.10
2022-08-09T14:29:08.254Z,1.50
2022-08-09T14:31:53.353Z,1.05
2022-08-09T14:34:30.773Z,1.10
2022-08-09T14:37:06.855Z,1.20
2022-08-09T14:39:45.355Z,1.17
2022-08-09T14:42:28.828Z,1.10
2022-08-09T14:46:40.307Z,1.27
2022-08-09T14:47:58.898Z,1.60
2022-08-09T14:50:27.911Z,1.20
2022-08-09T14:52:54.710Z,1.10
2022-08-09T14:55:21.492Z,1.00
2022-08-09T14:57:49.197Z,1.30
2022-08-09T15:00:16.854Z,1.38
2022-08-09T15:02:47.568Z,1.30
2022-08-09T15:05:18.811Z,1.10
2022-08-09T15:07:56.467Z,1.08
2022-08-09T15:10:25.334Z,1.08
2022-08-09T15:12:56.289Z,1.40
2022-08-09T15:15:24.702Z,1.10
2022-08-09T15:17:56.023Z,1.20
2022-08-09T15:21:54.685Z,1.33
2022-08-09T15:24:01.450Z,0.90
2022-08-09T15:25:58.352Z,1.13
2022-08-09T15:28:27.747Z,1.10
2022-08-09T15:31:03.098Z,1.10
2022-08-09T15:34:33.151Z,1.10
2022-08-09T15:36:21.937Z,1.15
2022-08-09T15:38:55.455Z,1.05
2022-08-09T15:41:23.412Z,1.15
2022-08-09T15:44:02.834Z,1.20
2022-08-09T15:46:33.165Z,0.90
2022-08-09T15:49:22.875Z,1.10
2022-08-09T15:52:04.015Z,1.20
2022-08-09T15:54:44.361Z,1.20
2022-08-09T15:57:35.887Z,1.23
2022-08-09T16:00:09.669Z,1.38
2022-08-09T16:02:53.826Z,1.98
2022-08-09T16:05:22.287Z,1.67
2022-08-09T16:07:49.278Z,1.35
2022-08-09T16:10:55.371Z,1.20
2022-08-09T16:13:03.894Z,1.20
2022-08-09T16:16:04.453Z,1.17
2022-08-09T16:18:17.462Z,1.33
2022-08-09T16:20:46.583Z,1.20
2022-08-09T16:23:13.697Z,1.42
2022-08-09T16:25:41.766Z,1.20
2022-08-09T16:28:16.374Z,1.30
2022-08-09T16:30:44.713Z,1.50
2022-08-09T16:33:23.181Z,1.20
2022-08-09T16:35:57.025Z,1.10
2022-08-09T16:38:26.860Z,1.20
2022-08-09T16:40:53.684Z,1.25
2022-08-09T16:43:22.462Z,1.48
2022-08-09T16:45:53.402Z,1.33
2022-08-09T16:48:38.244Z,1.40
2022-08-09T16:51:14.266Z,1.30
2022-08-09T16:56:33.768Z,1.42
2022-08-09T16:59:06.859Z,1.30
2022-08-09T17:01:37.717Z,1.38
2022-08-09T17:04:06.442Z,1.35
2022-08-09T17:06:33.866Z,1.30
2022-08-09T17:09:45.736Z,1.40
2022-08-09T17:12:07.550Z,1.17
2022-08-09T17:14:34.401Z,1.17
2022-08-09T17:17:03.623Z,1.13
2022-08-09T17:20:29.669Z,1.20
2022-08-09T17:22:51.656Z,1.10
2022-08-09T17:25:21.922Z,1.40
2022-08-09T17:30:26.577Z,1.10
2022-08-09T17:33:04.596Z,1.33
2022-08-09T17:35:33.994Z,1.17
2022-08-09T17:38:11.838Z,1.20
2022-08-09T17:40:42.546Z,1.25
2022-08-09T17:43:34.180Z,1.50
2022-08-09T17:46:04.090Z,0.90
2022-08-09T17:48:38.640Z,1.10
2022-08-09T17:51:18.500Z,1.20
2022-08-09T17:53:53.552Z,1.25
2022-08-09T17:56:28.912Z,1.30
2022-08-09T17:59:11.289Z,1.27
2022-08-09T18:02:07.536Z,1.35
2022-08-09T18:04:30.025Z,1.20
2022-08-09T18:06:57.509Z,1.40
2022-08-09T18:09:40.374Z,1.10
2022-08-09T18:12:17.186Z,1.00
2022-08-09T18:14:50.117Z,1.20
2022-08-09T18:18:01.129Z,1.38
2022-08-09T18:20:59.056Z,1.40
2022-08-09T18:23:05.137Z,1.08
2022-08-09T18:25:52.991Z,1.33
2022-08-09T18:30:36.401Z,1.63
2022-08-09T18:31:08.623Z,1.23
2022-08-09T18:33:36.043Z,1.33
2022-08-09T18:36:03.861Z,1.40
2022-08-09T18:38:30.523Z,1.58
2022-08-09T18:40:58.586Z,1.30
2022-08-09T18:43:25.265Z,1.20
2022-08-09T18:46:51.209Z,1.23
2022-08-09T18:48:38.840Z,1.10
2022-08-09T18:51:09.340Z,1.50
2022-08-09T18:54:01.019Z,1.50
2022-08-09T18:56:27.901Z,1.30
2022-08-09T18:58:56.429Z,1.40
2022-08-09T19:01:24.229Z,1.27
2022-08-09T19:04:01.427Z,1.38
2022-08-09T19:06:34.316Z,1.20
2022-08-09T19:09:04.491Z,1.13
2022-08-09T19:11:37.859Z,1.20
2022-08-09T19:14:06.717Z,1.20
2022-08-09T19:16:37.934Z,1.40
2022-08-09T19:19:25.115Z,1.23
2022-08-09T19:22:06.268Z,1.08
2022-08-09T19:25:09.171Z,1.20
2022-08-09T19:27:22.517Z,1.13
2022-08-09T19:30:22.282Z,1.05
2022-08-09T19:32:36.382Z,1.00
2022-08-09T19:35:04.644Z,1.45
2022-08-09T19:37:40.917Z,1.30
2022-08-09T19:40:19.646Z,1.20
2022-08-09T19:42:49.512Z,1.35
2022-08-09T19:45:17.053Z,1.10
2022-08-09T19:47:44.830Z,1.10
2022-08-09T19:50:51.351Z,1.40
2022-08-09T19:52:59.666Z,1.17
2022-08-09T19:56:03.404Z,1.27
2022-08-09T19:58:17.917Z,1.25
2022-08-09T20:00:57.669Z,1.33
2022-08-09T20:04:17.151Z,1.10
2022-08-09T20:06:23.924Z,1.52
2022-08-09T20:08:57.176Z,1.38
2022-08-09T20:11:25.772Z,1.33
2022-08-09T20:13:53.816Z,1.17
2022-08-09T20:16:36.999Z,1.63
2022-08-09T20:19:48.454Z,1.23
2022-08-09T20:21:57.492Z,1.27
2022-08-09T20:24:31.714Z,1.10
2022-08-09T20:27:08.060Z,1.13
2022-08-09T20:29:37.222Z,1.35
2022-08-09T20:32:30.374Z,1.17
2022-08-09T20:34:56.487Z,1.23
2022-08-09T20:37:23.277Z,1.40
2022-08-09T20:40:15.292Z,1.50
2022-08-09T20:42:37.948Z,1.30
2022-08-09T20:46:01.242Z,1.50
2022-08-09T20:47:52.569Z,1.50
2022-08-09T20:50:47.119Z,1.67
2022-08-09T20:53:21.053Z,1.25
2022-08-09T20:56:02.357Z,1.50
2022-08-09T20:58:32.779Z,1.42
2022-08-09T21:01:14.137Z,1.27
2022-08-09T21:04:08.145Z,1.50
2022-08-09T21:06:35.158Z,1.40
2022-08-09T21:09:02.779Z,1.48
2022-08-09T21:14:17.590Z,1.23
2022-08-09T21:16:45.746Z,1.60
2022-08-09T21:20:19.213Z,1.58
2022-08-09T21:22:00.081Z,1.40
2022-08-09T21:24:32.463Z,1.48
2022-08-09T21:27:01.069Z,1.20
2022-08-09T21:29:49.665Z,1.50
2022-08-09T21:32:18.784Z,1.20
2022-08-09T21:34:49.057Z,1.40
2022-08-09T21:37:18.227Z,1.40
2022-08-09T21:39:45.345Z,1.50
2022-08-09T21:42:17.551Z,1.52
2022-08-09T21:44:55.334Z,1.40
2022-08-09T21:47:22.209Z,1.38
2022-08-09T21:49:49.530Z,1.35
2022-08-09T21:52:20.615Z,1.60
2022-08-09T21:55:03.340Z,1.50
2022-08-09T21:57:38.997Z,1.55
2022-08-09T22:00:25.239Z,1.40
2022-08-09T22:02:58.978Z,1.45
2022-08-09T22:05:36.745Z,1.45
2022-08-09T22:08:11.912Z,1.50
2022-08-09T22:11:49.842Z,1.60
2022-08-09T22:13:34.590Z,1.50
2022-08-09T22:16:04.113Z,1.70
2022-08-09T22:18:33.038Z,1.75
2022-08-09T22:21:00.873Z,1.40
2022-08-09T22:23:35.490Z,1.55
2022-08-09T22:26:23.556Z,1.50
2022-08-09T22:29:05.361Z,2.10
2022-08-09T22:31:35.804Z,1.58
2022-08-09T22:34:02.469Z,1.60
2022-08-09T22:36:29.190Z,1.50
2022-08-09T22:39:46.948Z,1.42
2022-08-09T22:41:59.512Z,1.60
2022-08-09T22:44:32.937Z,1.52
2022-08-09T22:48:10.964Z,1.65
2022-08-09T22:49:47.406Z,1.60
2022-08-09T22:52:19.677Z,1.70
2022-08-09T22:54:47.855Z,1.50
2022-08-09T22:57:15.263Z,1.70
2022-08-09T22:59:56.001Z,1.40
2022-08-09T23:02:25.249Z,1.75
2022-08-09T23:04:53.902Z,1.60
2022-08-09T23:08:22.207Z,1.70
2022-08-09T23:10:28.877Z,1.95
2022-08-09T23:12:55.723Z,1.95
2022-08-09T23:15:22.516Z,1.70
2022-08-09T23:17:49.150Z,1.63
2022-08-09T23:20:15.897Z,1.60
2022-08-09T23:22:42.716Z,2.25
2022-08-09T23:25:10.828Z,1.98
2022-08-09T23:27:37.640Z,1.95
2022-08-09T23:30:24.324Z,1.88
2022-08-09T23:32:52.335Z,2.08
2022-08-09T23:35:19.085Z,2.08
2022-08-09T23:37:45.834Z,2.10
2022-08-09T23:40:13.106Z,1.80
2022-08-09T23:42:40.568Z,2.17
2022-08-09T23:45:08.949Z,2.00
2022-08-09T23:47:36.572Z,2.30
2022-08-09T23:50:04.278Z,2.45
2022-08-09T23:52:31.014Z,2.70
2022-08-09T23:54:59.873Z,2.55
2022-08-09T23:57:26.991Z,2.53
